Terminal Aerodrome Forecast
Issued by NWS

Home | Current Version | Previous Version | Text Only | Print | Product List | Glossary On
Versions: 1 2 3 4 5 6 7 8 9 10 11 12 13 14 15 16 17 18 19 20 21 22 23
000
FTUS43 KIND 290500
TAFHUF
TAF
KHUF 290522Z 2906/3006 15004KT P6SM FEW050 SCT250
     FM291400 19009KT P6SM SCT040 BKN080
     FM291700 19011G20KT P6SM VCTS BKN045CB
     FM300200 20006KT P6SM BKN045=

USA.gov is the U.S. government's official web portal to all federal, state and local government web resources and services.